LICT/TPS METAR and TAF weather

Enter ICAO airport designator
Station Type Date Time Source
LICT METAR 2021/09/28 03:55 UTC NOAA

LICT 280355Z 35008KT 9999 SCT015 25/22 Q1016


Station Type Date Time Source
LICT Decoded METAR 2021/09/28 03:55 UTC NOAA

Trapani / Birgi, Italy (LICT) 37-55N 012-30E 14M
Sep 27, 2021 - 11:55 PM EDT / 2021.09.28 0355 UTC
Wind: from the N (350 degrees) at 9 MPH (8 KT):0
Visibility: greater than 7 mile(s):0
Sky conditions: partly cloudy
Temperature: 77 F (25 C)
Dew Point: 71 F (22 C)
Relative Humidity: 83%
Pressure (altimeter): 30.00 in. Hg (1016 hPa)
ob: LICT 280355Z 35008KT 9999 SCT015 25/22 Q1016
cycle: 4

Station Type Date Time Source
LICT TAF 2021/02/10 12:24 UTC NOAA

TAF TAF LICT 101100Z 1012/1024 18015KT CAVOK
BECMG 1015/1017 7000 RA BKN018
BECMG 1018/1020 26020G32KT
TEMPO 1020/1024 27025G40KT TSRA SCT015CB BKN018

Example: see airport list